sensor_id;sensor_type;location;lat;lon;timestamp;P1;durP1;ratioP1;P2;durP2;ratioP2
76196;SDS011;64974;53.144;17.962;2023-02-04T00:01:17;7.93;;;3.83;;
76196;SDS011;64974;53.144;17.962;2023-02-04T00:03:42;7.50;;;3.47;;
76196;SDS011;64974;53.144;17.962;2023-02-04T00:06:07;8.57;;;3.83;;
76196;SDS011;64974;53.144;17.962;2023-02-04T00:08:32;8.77;;;3.43;;
76196;SDS011;64974;53.144;17.962;2023-02-04T00:10:58;7.63;;;3.53;;
76196;SDS011;64974;53.144;17.962;2023-02-04T00:13:23;9.70;;;4.40;;
76196;SDS011;64974;53.144;17.962;2023-02-04T00:15:48;9.10;;;4.22;;
76196;SDS011;64974;53.144;17.962;2023-02-04T00:18:14;10.37;;;3.80;;
76196;SDS011;64974;53.144;17.962;2023-02-04T00:20:39;8.20;;;3.55;;
76196;SDS011;64974;53.144;17.962;2023-02-04T00:23:04;7.07;;;2.97;;
76196;SDS011;64974;53.144;17.962;2023-02-04T00:25:30;8.50;;;3.63;;
76196;SDS011;64974;53.144;17.962;2023-02-04T00:27:55;10.33;;;3.77;;
76196;SDS011;64974;53.144;17.962;2023-02-04T00:30:20;7.17;;;3.70;;
76196;SDS011;64974;53.144;17.962;2023-02-04T00:32:46;8.05;;;3.17;;
76196;SDS011;64974;53.144;17.962;2023-02-04T00:35:11;8.17;;;3.50;;
76196;SDS011;64974;53.144;17.962;2023-02-04T00:37:37;5.35;;;2.97;;
76196;SDS011;64974;53.144;17.962;2023-02-04T00:40:03;6.60;;;3.00;;
76196;SDS011;64974;53.144;17.962;2023-02-04T00:42:28;5.97;;;3.28;;
76196;SDS011;64974;53.144;17.962;2023-02-04T00:44:53;7.97;;;3.80;;
76196;SDS011;64974;53.144;17.962;2023-02-04T00:47:19;7.10;;;2.83;;
76196;SDS011;64974;53.144;17.962;2023-02-04T00:49:44;4.40;;;2.73;;
76196;SDS011;64974;53.144;17.962;2023-02-04T00:52:09;7.40;;;2.93;;
76196;SDS011;64974;53.144;17.962;2023-02-04T00:54:35;7.83;;;3.07;;
76196;SDS011;64974;53.144;17.962;2023-02-04T00:57:00;9.57;;;3.72;;
76196;SDS011;64974;53.144;17.962;2023-02-04T00:59:25;8.07;;;3.58;;
76196;SDS011;64974;53.144;17.962;2023-02-04T01:01:51;6.75;;;3.70;;
76196;SDS011;64974;53.144;17.962;2023-02-04T01:04:16;6.75;;;3.22;;
76196;SDS011;64974;53.144;17.962;2023-02-04T01:06:41;6.15;;;3.78;;
76196;SDS011;64974;53.144;17.962;2023-02-04T01:09:07;4.60;;;2.43;;
76196;SDS011;64974;53.144;17.962;2023-02-04T01:11:32;9.15;;;4.15;;
76196;SDS011;64974;53.144;17.962;2023-02-04T01:13:58;10.85;;;4.45;;
76196;SDS011;64974;53.144;17.962;2023-02-04T01:16:23;7.72;;;4.03;;
76196;SDS011;64974;53.144;17.962;2023-02-04T01:18:48;9.17;;;4.03;;
76196;SDS011;64974;53.144;17.962;2023-02-04T01:21:14;9.07;;;4.90;;
76196;SDS011;64974;53.144;17.962;2023-02-04T01:23:39;7.75;;;3.97;;
76196;SDS011;64974;53.144;17.962;2023-02-04T01:26:04;8.23;;;3.63;;
76196;SDS011;64974;53.144;17.962;2023-02-04T01:28:30;9.40;;;4.87;;
76196;SDS011;64974;53.144;17.962;2023-02-04T01:30:55;7.00;;;3.63;;
76196;SDS011;64974;53.144;17.962;2023-02-04T01:33:20;6.57;;;4.20;;
76196;SDS011;64974;53.144;17.962;2023-02-04T01:35:46;11.90;;;4.70;;
76196;SDS011;64974;53.144;17.962;2023-02-04T01:38:11;8.05;;;3.90;;
76196;SDS011;64974;53.144;17.962;2023-02-04T01:40:36;7.60;;;3.85;;
76196;SDS011;64974;53.144;17.962;2023-02-04T01:43:02;9.63;;;4.20;;
76196;SDS011;64974;53.144;17.962;2023-02-04T01:45:27;7.55;;;3.55;;
76196;SDS011;64974;53.144;17.962;2023-02-04T01:50:19;6.30;;;3.57;;
76196;SDS011;64974;53.144;17.962;2023-02-04T01:52:45;8.93;;;4.18;;
76196;SDS011;64974;53.144;17.962;2023-02-04T01:55:14;7.97;;;4.43;;
76196;SDS011;64974;53.144;17.962;2023-02-04T01:57:42;8.52;;;3.92;;
76196;SDS011;64974;53.144;17.962;2023-02-04T02:00:13;9.07;;;3.75;;
76196;SDS011;64974;53.144;17.962;2023-02-04T02:02:45;3.92;;;2.50;;
76196;SDS011;64974;53.144;17.962;2023-02-04T02:05:15;6.10;;;3.30;;
76196;SDS011;64974;53.144;17.962;2023-02-04T02:07:46;6.78;;;3.20;;
76196;SDS011;64974;53.144;17.962;2023-02-04T02:10:12;5.90;;;2.90;;
76196;SDS011;64974;53.144;17.962;2023-02-04T02:12:39;5.93;;;3.80;;
76196;SDS011;64974;53.144;17.962;2023-02-04T02:15:05;5.90;;;3.28;;
76196;SDS011;64974;53.144;17.962;2023-02-04T02:17:31;5.88;;;2.75;;
76196;SDS011;64974;53.144;17.962;2023-02-04T02:19:57;3.53;;;1.90;;
76196;SDS011;64974;53.144;17.962;2023-02-04T02:22:27;6.95;;;3.45;;
76196;SDS011;64974;53.144;17.962;2023-02-04T02:24:56;3.90;;;2.17;;
76196;SDS011;64974;53.144;17.962;2023-02-04T02:27:21;5.10;;;2.60;;
76196;SDS011;64974;53.144;17.962;2023-02-04T02:29:47;7.47;;;2.63;;
76196;SDS011;64974;53.144;17.962;2023-02-04T02:32:13;2.90;;;1.83;;
76196;SDS011;64974;53.144;17.962;2023-02-04T02:37:04;5.97;;;2.30;;
76196;SDS011;64974;53.144;17.962;2023-02-04T02:39:30;2.75;;;1.33;;
76196;SDS011;64974;53.144;17.962;2023-02-04T02:41:56;4.78;;;2.00;;
76196;SDS011;64974;53.144;17.962;2023-02-04T02:44:22;4.13;;;1.80;;
76196;SDS011;64974;53.144;17.962;2023-02-04T02:46:49;3.75;;;1.88;;
76196;SDS011;64974;53.144;17.962;2023-02-04T02:49:15;2.88;;;1.67;;
76196;SDS011;64974;53.144;17.962;2023-02-04T02:51:41;3.88;;;1.92;;
76196;SDS011;64974;53.144;17.962;2023-02-04T02:54:12;4.90;;;1.88;;
76196;SDS011;64974;53.144;17.962;2023-02-04T02:56:44;5.20;;;1.80;;
76196;SDS011;64974;53.144;17.962;2023-02-04T02:59:13;2.73;;;1.50;;
76196;SDS011;64974;53.144;17.962;2023-02-04T03:01:39;2.92;;;1.50;;
76196;SDS011;64974;53.144;17.962;2023-02-04T03:04:04;4.32;;;1.50;;
76196;SDS011;64974;53.144;17.962;2023-02-04T03:06:30;2.13;;;1.35;;
76196;SDS011;64974;53.144;17.962;2023-02-04T03:08:55;3.00;;;1.85;;
76196;SDS011;64974;53.144;17.962;2023-02-04T03:11:21;3.03;;;1.23;;
76196;SDS011;64974;53.144;17.962;2023-02-04T03:13:47;6.93;;;1.60;;
76196;SDS011;64974;53.144;17.962;2023-02-04T03:16:13;2.22;;;1.17;;
76196;SDS011;64974;53.144;17.962;2023-02-04T03:18:38;6.55;;;2.20;;
76196;SDS011;64974;53.144;17.962;2023-02-04T03:21:04;7.72;;;3.13;;
76196;SDS011;64974;53.144;17.962;2023-02-04T03:23:31;5.30;;;2.28;;
76196;SDS011;64974;53.144;17.962;2023-02-04T03:30:48;1.53;;;0.93;;
76196;SDS011;64974;53.144;17.962;2023-02-04T03:33:17;2.38;;;1.45;;
76196;SDS011;64974;53.144;17.962;2023-02-04T03:35:42;1.58;;;0.98;;
76196;SDS011;64974;53.144;17.962;2023-02-04T03:38:08;3.47;;;1.67;;
76196;SDS011;64974;53.144;17.962;2023-02-04T03:40:33;3.10;;;1.45;;
76196;SDS011;64974;53.144;17.962;2023-02-04T03:42:58;4.13;;;1.40;;
76196;SDS011;64974;53.144;17.962;2023-02-04T03:45:24;1.27;;;0.98;;
76196;SDS011;64974;53.144;17.962;2023-02-04T03:47:49;2.03;;;1.17;;
76196;SDS011;64974;53.144;17.962;2023-02-04T03:50:15;2.55;;;1.40;;
76196;SDS011;64974;53.144;17.962;2023-02-04T03:52:40;3.05;;;1.77;;
76196;SDS011;64974;53.144;17.962;2023-02-04T03:55:05;4.20;;;2.10;;
76196;SDS011;64974;53.144;17.962;2023-02-04T03:57:31;2.50;;;1.60;;
76196;SDS011;64974;53.144;17.962;2023-02-04T03:59:56;4.00;;;2.00;;
76196;SDS011;64974;53.144;17.962;2023-02-04T04:02:21;4.80;;;1.60;;
76196;SDS011;64974;53.144;17.962;2023-02-04T04:04:46;4.40;;;1.97;;
76196;SDS011;64974;53.144;17.962;2023-02-04T04:07:12;7.97;;;1.60;;
76196;SDS011;64974;53.144;17.962;2023-02-04T04:09:37;3.70;;;1.97;;
76196;SDS011;64974;53.144;17.962;2023-02-04T04:12:02;4.40;;;1.60;;
76196;SDS011;64974;53.144;17.962;2023-02-04T04:14:28;3.38;;;1.92;;
76196;SDS011;64974;53.144;17.962;2023-02-04T04:16:53;5.70;;;1.95;;
76196;SDS011;64974;53.144;17.962;2023-02-04T04:19:19;3.90;;;2.13;;
76196;SDS011;64974;53.144;17.962;2023-02-04T04:21:45;2.80;;;1.40;;
76196;SDS011;64974;53.144;17.962;2023-02-04T04:24:10;6.20;;;2.00;;
76196;SDS011;64974;53.144;17.962;2023-02-04T04:26:35;2.83;;;1.73;;
76196;SDS011;64974;53.144;17.962;2023-02-04T04:29:01;4.78;;;1.95;;
76196;SDS011;64974;53.144;17.962;2023-02-04T04:31:26;2.73;;;1.87;;
76196;SDS011;64974;53.144;17.962;2023-02-04T04:33:51;4.28;;;2.40;;
76196;SDS011;64974;53.144;17.962;2023-02-04T04:36:16;3.85;;;2.35;;
76196;SDS011;64974;53.144;17.962;2023-02-04T04:38:42;6.03;;;3.20;;
76196;SDS011;64974;53.144;17.962;2023-02-04T04:41:07;5.23;;;2.50;;
76196;SDS011;64974;53.144;17.962;2023-02-04T04:43:32;4.97;;;1.77;;
76196;SDS011;64974;53.144;17.962;2023-02-04T04:45:58;4.80;;;1.80;;
76196;SDS011;64974;53.144;17.962;2023-02-04T04:48:23;7.17;;;2.10;;
76196;SDS011;64974;53.144;17.962;2023-02-04T04:50:49;2.17;;;1.27;;
76196;SDS011;64974;53.144;17.962;2023-02-04T04:53:15;3.58;;;1.73;;
76196;SDS011;64974;53.144;17.962;2023-02-04T04:55:40;1.85;;;1.38;;
76196;SDS011;64974;53.144;17.962;2023-02-04T04:58:06;3.47;;;1.33;;
76196;SDS011;64974;53.144;17.962;2023-02-04T05:00:32;5.45;;;2.17;;
76196;SDS011;64974;53.144;17.962;2023-02-04T05:02:57;4.35;;;1.67;;
76196;SDS011;64974;53.144;17.962;2023-02-04T05:05:22;5.22;;;2.25;;
76196;SDS011;64974;53.144;17.962;2023-02-04T05:07:48;5.50;;;2.60;;
76196;SDS011;64974;53.144;17.962;2023-02-04T05:10:13;6.10;;;2.60;;
76196;SDS011;64974;53.144;17.962;2023-02-04T05:12:39;6.38;;;3.00;;
76196;SDS011;64974;53.144;17.962;2023-02-04T05:15:04;4.03;;;1.83;;
76196;SDS011;64974;53.144;17.962;2023-02-04T05:17:30;6.35;;;2.95;;
76196;SDS011;64974;53.144;17.962;2023-02-04T05:19:55;5.53;;;2.63;;
76196;SDS011;64974;53.144;17.962;2023-02-04T05:22:21;19.20;;;6.67;;
76196;SDS011;64974;53.144;17.962;2023-02-04T05:24:46;10.40;;;3.75;;
76196;SDS011;64974;53.144;17.962;2023-02-04T05:27:11;6.03;;;2.93;;
76196;SDS011;64974;53.144;17.962;2023-02-04T05:29:37;7.70;;;2.28;;
76196;SDS011;64974;53.144;17.962;2023-02-04T05:32:02;5.18;;;2.45;;
76196;SDS011;64974;53.144;17.962;2023-02-04T05:34:27;4.57;;;2.35;;
76196;SDS011;64974;53.144;17.962;2023-02-04T05:36:53;10.90;;;3.63;;
76196;SDS011;64974;53.144;17.962;2023-02-04T05:39:18;14.63;;;4.80;;
76196;SDS011;64974;53.144;17.962;2023-02-04T05:41:43;21.15;;;6.78;;
76196;SDS011;64974;53.144;17.962;2023-02-04T05:44:09;17.47;;;5.77;;
76196;SDS011;64974;53.144;17.962;2023-02-04T05:46:34;7.53;;;3.38;;
76196;SDS011;64974;53.144;17.962;2023-02-04T05:49:00;6.07;;;2.47;;
76196;SDS011;64974;53.144;17.962;2023-02-04T05:51:25;8.10;;;3.00;;
76196;SDS011;64974;53.144;17.962;2023-02-04T05:53:51;6.23;;;2.30;;
76196;SDS011;64974;53.144;17.962;2023-02-04T05:56:16;5.57;;;2.07;;
76196;SDS011;64974;53.144;17.962;2023-02-04T05:58:41;2.97;;;1.95;;
76196;SDS011;64974;53.144;17.962;2023-02-04T06:01:07;3.37;;;1.80;;
76196;SDS011;64974;53.144;17.962;2023-02-04T06:03:32;4.95;;;2.30;;
76196;SDS011;64974;53.144;17.962;2023-02-04T06:05:57;10.73;;;4.18;;
76196;SDS011;64974;53.144;17.962;2023-02-04T06:08:23;4.10;;;1.90;;
76196;SDS011;64974;53.144;17.962;2023-02-04T06:10:48;4.43;;;1.85;;
76196;SDS011;64974;53.144;17.962;2023-02-04T06:13:14;3.28;;;1.40;;
76196;SDS011;64974;53.144;17.962;2023-02-04T06:15:40;6.00;;;2.13;;
76196;SDS011;64974;53.144;17.962;2023-02-04T06:18:05;3.80;;;1.60;;
76196;SDS011;64974;53.144;17.962;2023-02-04T06:20:30;4.85;;;2.30;;
76196;SDS011;64974;53.144;17.962;2023-02-04T06:22:56;8.07;;;2.90;;
76196;SDS011;64974;53.144;17.962;2023-02-04T06:25:21;5.37;;;1.60;;
76196;SDS011;64974;53.144;17.962;2023-02-04T06:27:47;6.32;;;1.90;;
76196;SDS011;64974;53.144;17.962;2023-02-04T06:30:12;2.22;;;1.20;;
76196;SDS011;64974;53.144;17.962;2023-02-04T06:32:38;2.58;;;1.20;;
76196;SDS011;64974;53.144;17.962;2023-02-04T06:35:03;3.42;;;1.00;;
76196;SDS011;64974;53.144;17.962;2023-02-04T06:37:29;3.40;;;1.02;;
76196;SDS011;64974;53.144;17.962;2023-02-04T06:39:54;4.03;;;1.50;;
76196;SDS011;64974;53.144;17.962;2023-02-04T06:42:21;2.58;;;1.50;;
76196;SDS011;64974;53.144;17.962;2023-02-04T06:44:47;8.13;;;2.65;;
76196;SDS011;64974;53.144;17.962;2023-02-04T06:47:12;16.38;;;4.25;;
76196;SDS011;64974;53.144;17.962;2023-02-04T06:49:37;15.30;;;5.23;;
76196;SDS011;64974;53.144;17.962;2023-02-04T06:52:03;6.93;;;2.00;;
76196;SDS011;64974;53.144;17.962;2023-02-04T06:54:29;3.67;;;1.88;;
76196;SDS011;64974;53.144;17.962;2023-02-04T06:56:55;5.10;;;2.30;;
76196;SDS011;64974;53.144;17.962;2023-02-04T06:59:20;5.13;;;2.92;;
76196;SDS011;64974;53.144;17.962;2023-02-04T07:01:45;5.45;;;3.70;;
76196;SDS011;64974;53.144;17.962;2023-02-04T07:04:11;7.83;;;2.80;;
76196;SDS011;64974;53.144;17.962;2023-02-04T07:06:36;6.40;;;3.13;;
76196;SDS011;64974;53.144;17.962;2023-02-04T07:09:01;5.63;;;2.38;;
76196;SDS011;64974;53.144;17.962;2023-02-04T07:11:27;3.17;;;1.75;;
76196;SDS011;64974;53.144;17.962;2023-02-04T07:13:52;3.95;;;1.50;;
76196;SDS011;64974;53.144;17.962;2023-02-04T07:16:17;7.80;;;2.77;;
76196;SDS011;64974;53.144;17.962;2023-02-04T07:18:43;4.65;;;1.77;;
76196;SDS011;64974;53.144;17.962;2023-02-04T07:21:08;3.73;;;1.10;;
76196;SDS011;64974;53.144;17.962;2023-02-04T07:23:33;4.33;;;1.53;;
76196;SDS011;64974;53.144;17.962;2023-02-04T07:25:59;2.63;;;1.27;;
76196;SDS011;64974;53.144;17.962;2023-02-04T07:28:24;2.95;;;1.40;;
76196;SDS011;64974;53.144;17.962;2023-02-04T07:30:50;4.68;;;1.75;;
76196;SDS011;64974;53.144;17.962;2023-02-04T07:33:15;4.28;;;1.98;;
76196;SDS011;64974;53.144;17.962;2023-02-04T07:35:41;4.53;;;1.67;;
76196;SDS011;64974;53.144;17.962;2023-02-04T07:38:06;6.60;;;1.20;;
76196;SDS011;64974;53.144;17.962;2023-02-04T07:40:32;5.70;;;1.83;;
76196;SDS011;64974;53.144;17.962;2023-02-04T07:42:57;2.10;;;1.30;;
76196;SDS011;64974;53.144;17.962;2023-02-04T07:45:22;4.05;;;1.63;;
76196;SDS011;64974;53.144;17.962;2023-02-04T07:47:48;4.60;;;1.42;;
76196;SDS011;64974;53.144;17.962;2023-02-04T07:50:13;1.75;;;1.00;;
76196;SDS011;64974;53.144;17.962;2023-02-04T07:52:40;2.03;;;1.35;;
76196;SDS011;64974;53.144;17.962;2023-02-04T07:55:06;1.85;;;0.88;;
76196;SDS011;64974;53.144;17.962;2023-02-04T07:57:31;5.93;;;1.15;;
76196;SDS011;64974;53.144;17.962;2023-02-04T07:59:57;3.60;;;1.05;;
76196;SDS011;64974;53.144;17.962;2023-02-04T08:02:23;4.57;;;2.63;;
76196;SDS011;64974;53.144;17.962;2023-02-04T08:04:48;3.78;;;1.95;;
76196;SDS011;64974;53.144;17.962;2023-02-04T08:07:14;4.90;;;1.27;;
76196;SDS011;64974;53.144;17.962;2023-02-04T08:09:39;4.63;;;1.77;;
76196;SDS011;64974;53.144;17.962;2023-02-04T08:12:04;5.23;;;1.87;;
76196;SDS011;64974;53.144;17.962;2023-02-04T08:14:29;2.72;;;1.38;;
76196;SDS011;64974;53.144;17.962;2023-02-04T08:16:55;2.88;;;1.20;;
76196;SDS011;64974;53.144;17.962;2023-02-04T08:19:20;0.37;;;0.20;;
76196;SDS011;64974;53.144;17.962;2023-02-04T08:21:46;2.40;;;1.20;;
76196;SDS011;64974;53.144;17.962;2023-02-04T08:24:12;4.90;;;1.10;;
76196;SDS011;64974;53.144;17.962;2023-02-04T08:26:38;1.20;;;0.80;;
76196;SDS011;64974;53.144;17.962;2023-02-04T08:29:04;3.88;;;1.27;;
76196;SDS011;64974;53.144;17.962;2023-02-04T08:31:30;1.37;;;0.83;;
76196;SDS011;64974;53.144;17.962;2023-02-04T08:33:55;1.92;;;1.02;;
76196;SDS011;64974;53.144;17.962;2023-02-04T08:36:20;2.33;;;1.23;;
76196;SDS011;64974;53.144;17.962;2023-02-04T08:38:46;2.17;;;1.13;;
76196;SDS011;64974;53.144;17.962;2023-02-04T08:41:11;1.00;;;0.90;;
76196;SDS011;64974;53.144;17.962;2023-02-04T08:43:36;2.53;;;0.77;;
76196;SDS011;64974;53.144;17.962;2023-02-04T08:46:02;1.03;;;0.93;;
76196;SDS011;64974;53.144;17.962;2023-02-04T08:48:27;3.05;;;1.33;;
76196;SDS011;64974;53.144;17.962;2023-02-04T08:50:52;1.42;;;1.13;;
76196;SDS011;64974;53.144;17.962;2023-02-04T08:53:18;1.60;;;0.98;;
76196;SDS011;64974;53.144;17.962;2023-02-04T08:55:43;2.33;;;1.03;;
76196;SDS011;64974;53.144;17.962;2023-02-04T08:58:08;2.90;;;1.27;;
76196;SDS011;64974;53.144;17.962;2023-02-04T09:00:34;4.22;;;1.58;;
76196;SDS011;64974;53.144;17.962;2023-02-04T09:02:59;3.13;;;1.07;;
76196;SDS011;64974;53.144;17.962;2023-02-04T09:05:24;1.97;;;1.03;;
76196;SDS011;64974;53.144;17.962;2023-02-04T09:07:50;7.97;;;1.33;;
76196;SDS011;64974;53.144;17.962;2023-02-04T09:10:15;2.87;;;1.27;;
76196;SDS011;64974;53.144;17.962;2023-02-04T09:12:40;2.75;;;1.15;;
76196;SDS011;64974;53.144;17.962;2023-02-04T09:15:07;2.55;;;1.13;;
76196;SDS011;64974;53.144;17.962;2023-02-04T09:17:34;3.50;;;1.52;;
76196;SDS011;64974;53.144;17.962;2023-02-04T09:19:59;3.67;;;1.67;;
76196;SDS011;64974;53.144;17.962;2023-02-04T09:22:25;5.15;;;1.45;;
76196;SDS011;64974;53.144;17.962;2023-02-04T09:24:50;4.63;;;1.70;;
76196;SDS011;64974;53.144;17.962;2023-02-04T09:27:15;7.93;;;2.40;;
76196;SDS011;64974;53.144;17.962;2023-02-04T09:29:41;5.47;;;1.65;;
76196;SDS011;64974;53.144;17.962;2023-02-04T09:32:06;5.90;;;2.85;;
76196;SDS011;64974;53.144;17.962;2023-02-04T09:34:32;4.60;;;1.65;;
76196;SDS011;64974;53.144;17.962;2023-02-04T09:36:57;7.47;;;4.47;;
76196;SDS011;64974;53.144;17.962;2023-02-04T09:39:22;3.35;;;2.08;;
76196;SDS011;64974;53.144;17.962;2023-02-04T09:41:48;3.75;;;1.63;;
76196;SDS011;64974;53.144;17.962;2023-02-04T09:44:16;2.25;;;1.20;;
76196;SDS011;64974;53.144;17.962;2023-02-04T09:46:44;3.50;;;1.58;;
76196;SDS011;64974;53.144;17.962;2023-02-04T09:49:12;2.38;;;0.82;;
76196;SDS011;64974;53.144;17.962;2023-02-04T09:51:37;4.68;;;2.38;;
76196;SDS011;64974;53.144;17.962;2023-02-04T09:54:04;4.03;;;1.52;;
76196;SDS011;64974;53.144;17.962;2023-02-04T09:56:32;2.03;;;1.38;;
76196;SDS011;64974;53.144;17.962;2023-02-04T09:58:57;1.73;;;0.88;;
76196;SDS011;64974;53.144;17.962;2023-02-04T10:01:22;3.90;;;1.52;;
76196;SDS011;64974;53.144;17.962;2023-02-04T10:03:48;3.85;;;1.85;;
76196;SDS011;64974;53.144;17.962;2023-02-04T10:06:16;2.60;;;1.08;;
76196;SDS011;64974;53.144;17.962;2023-02-04T10:08:43;3.00;;;1.55;;
76196;SDS011;64974;53.144;17.962;2023-02-04T10:11:10;4.05;;;1.92;;
76196;SDS011;64974;53.144;17.962;2023-02-04T10:13:37;2.38;;;1.40;;
76196;SDS011;64974;53.144;17.962;2023-02-04T10:16:17;5.43;;;1.63;;
76196;SDS011;64974;53.144;17.962;2023-02-04T10:18:44;6.13;;;2.92;;
76196;SDS011;64974;53.144;17.962;2023-02-04T10:21:14;2.50;;;1.35;;
76196;SDS011;64974;53.144;17.962;2023-02-04T10:23:41;2.00;;;0.93;;
76196;SDS011;64974;53.144;17.962;2023-02-04T10:26:11;3.25;;;1.80;;
76196;SDS011;64974;53.144;17.962;2023-02-04T10:28:37;3.65;;;1.38;;
76196;SDS011;64974;53.144;17.962;2023-02-04T10:34:01;2.75;;;1.30;;
76196;SDS011;64974;53.144;17.962;2023-02-04T10:36:30;6.45;;;2.58;;
76196;SDS011;64974;53.144;17.962;2023-02-04T10:39:10;4.85;;;2.22;;
76196;SDS011;64974;53.144;17.962;2023-02-04T10:41:36;6.18;;;2.47;;
76196;SDS011;64974;53.144;17.962;2023-02-04T10:44:05;3.05;;;1.52;;
76196;SDS011;64974;53.144;17.962;2023-02-04T10:46:33;5.00;;;2.45;;
76196;SDS011;64974;53.144;17.962;2023-02-04T10:48:58;7.22;;;2.05;;
76196;SDS011;64974;53.144;17.962;2023-02-04T10:51:24;1.40;;;1.00;;
76196;SDS011;64974;53.144;17.962;2023-02-04T10:53:49;4.35;;;1.48;;
76196;SDS011;64974;53.144;17.962;2023-02-04T10:56:33;1.83;;;1.40;;
76196;SDS011;64974;53.144;17.962;2023-02-04T10:58:58;5.10;;;1.95;;
76196;SDS011;64974;53.144;17.962;2023-02-04T11:01:24;2.70;;;1.50;;
76196;SDS011;64974;53.144;17.962;2023-02-04T11:03:50;5.63;;;2.28;;
76196;SDS011;64974;53.144;17.962;2023-02-04T11:06:18;2.77;;;1.77;;
76196;SDS011;64974;53.144;17.962;2023-02-04T11:08:45;2.80;;;0.63;;
76196;SDS011;64974;53.144;17.962;2023-02-04T11:11:17;6.40;;;1.63;;
76196;SDS011;64974;53.144;17.962;2023-02-04T11:13:56;5.18;;;2.22;;
76196;SDS011;64974;53.144;17.962;2023-02-04T11:16:29;3.80;;;1.90;;
76196;SDS011;64974;53.144;17.962;2023-02-04T11:19:01;3.42;;;1.65;;
76196;SDS011;64974;53.144;17.962;2023-02-04T11:26:38;5.93;;;1.50;;
76196;SDS011;64974;53.144;17.962;2023-02-04T11:34:02;4.32;;;1.67;;
76196;SDS011;64974;53.144;17.962;2023-02-04T11:39:25;5.40;;;2.00;;
76196;SDS011;64974;53.144;17.962;2023-02-04T11:41:52;5.43;;;1.65;;
76196;SDS011;64974;53.144;17.962;2023-02-04T11:44:18;3.53;;;1.27;;
76196;SDS011;64974;53.144;17.962;2023-02-04T11:46:48;3.97;;;1.17;;
76196;SDS011;64974;53.144;17.962;2023-02-04T11:49:16;4.18;;;1.52;;
76196;SDS011;64974;53.144;17.962;2023-02-04T11:51:43;3.88;;;1.55;;
76196;SDS011;64974;53.144;17.962;2023-02-04T11:54:15;4.60;;;0.98;;
76196;SDS011;64974;53.144;17.962;2023-02-04T11:56:43;3.00;;;1.00;;
76196;SDS011;64974;53.144;17.962;2023-02-04T11:59:10;3.13;;;1.05;;
76196;SDS011;64974;53.144;17.962;2023-02-04T12:01:36;4.30;;;1.38;;
76196;SDS011;64974;53.144;17.962;2023-02-04T12:04:02;2.58;;;1.25;;
76196;SDS011;64974;53.144;17.962;2023-02-04T12:06:32;0.57;;;0.52;;
76196;SDS011;64974;53.144;17.962;2023-02-04T12:09:21;2.30;;;1.40;;
76196;SDS011;64974;53.144;17.962;2023-02-04T12:11:52;3.75;;;1.40;;
76196;SDS011;64974;53.144;17.962;2023-02-04T12:14:17;5.45;;;2.22;;
76196;SDS011;64974;53.144;17.962;2023-02-04T12:16:47;8.15;;;1.75;;
76196;SDS011;64974;53.144;17.962;2023-02-04T12:19:15;7.55;;;2.50;;
76196;SDS011;64974;53.144;17.962;2023-02-04T12:21:41;4.10;;;1.80;;
76196;SDS011;64974;53.144;17.962;2023-02-04T12:24:07;4.57;;;1.85;;
76196;SDS011;64974;53.144;17.962;2023-02-04T12:26:32;5.72;;;2.13;;
76196;SDS011;64974;53.144;17.962;2023-02-04T12:28:57;4.70;;;2.50;;
76196;SDS011;64974;53.144;17.962;2023-02-04T12:31:26;3.03;;;1.20;;
76196;SDS011;64974;53.144;17.962;2023-02-04T12:33:52;4.13;;;1.70;;
76196;SDS011;64974;53.144;17.962;2023-02-04T12:36:18;3.20;;;1.55;;
76196;SDS011;64974;53.144;17.962;2023-02-04T12:38:43;2.78;;;1.65;;
76196;SDS011;64974;53.144;17.962;2023-02-04T12:41:09;3.75;;;1.10;;
76196;SDS011;64974;53.144;17.962;2023-02-04T12:43:34;3.83;;;2.03;;
76196;SDS011;64974;53.144;17.962;2023-02-04T12:46:00;4.35;;;1.70;;
76196;SDS011;64974;53.144;17.962;2023-02-04T12:48:25;4.57;;;1.80;;
76196;SDS011;64974;53.144;17.962;2023-02-04T12:50:50;2.33;;;1.08;;
76196;SDS011;64974;53.144;17.962;2023-02-04T12:53:16;4.87;;;2.30;;
76196;SDS011;64974;53.144;17.962;2023-02-04T12:55:41;2.70;;;1.27;;
76196;SDS011;64974;53.144;17.962;2023-02-04T12:58:06;3.20;;;0.50;;
76196;SDS011;64974;53.144;17.962;2023-02-04T13:00:32;1.40;;;0.90;;
76196;SDS011;64974;53.144;17.962;2023-02-04T13:02:57;1.97;;;1.00;;
76196;SDS011;64974;53.144;17.962;2023-02-04T13:05:23;1.80;;;0.98;;
76196;SDS011;64974;53.144;17.962;2023-02-04T13:07:48;1.80;;;0.95;;
76196;SDS011;64974;53.144;17.962;2023-02-04T13:10:14;3.90;;;1.85;;
76196;SDS011;64974;53.144;17.962;2023-02-04T13:12:39;1.73;;;1.30;;
76196;SDS011;64974;53.144;17.962;2023-02-04T13:15:05;3.42;;;1.75;;
76196;SDS011;64974;53.144;17.962;2023-02-04T13:17:31;5.10;;;1.63;;
76196;SDS011;64974;53.144;17.962;2023-02-04T13:19:56;5.23;;;1.97;;
76196;SDS011;64974;53.144;17.962;2023-02-04T13:22:21;4.90;;;1.38;;
76196;SDS011;64974;53.144;17.962;2023-02-04T13:24:47;3.25;;;1.52;;
76196;SDS011;64974;53.144;17.962;2023-02-04T13:27:12;3.67;;;1.03;;
76196;SDS011;64974;53.144;17.962;2023-02-04T13:32:04;1.90;;;1.27;;
76196;SDS011;64974;53.144;17.962;2023-02-04T13:34:29;4.13;;;1.52;;
76196;SDS011;64974;53.144;17.962;2023-02-04T13:36:55;1.55;;;0.98;;
76196;SDS011;64974;53.144;17.962;2023-02-04T13:39:20;1.67;;;1.08;;
76196;SDS011;64974;53.144;17.962;2023-02-04T13:41:45;1.60;;;0.90;;
76196;SDS011;64974;53.144;17.962;2023-02-04T13:44:11;1.60;;;1.20;;
76196;SDS011;64974;53.144;17.962;2023-02-04T13:46:36;5.97;;;1.77;;
76196;SDS011;64974;53.144;17.962;2023-02-04T13:49:02;2.53;;;0.93;;
76196;SDS011;64974;53.144;17.962;2023-02-04T13:51:27;5.00;;;1.75;;
76196;SDS011;64974;53.144;17.962;2023-02-04T13:53:53;6.88;;;2.47;;
76196;SDS011;64974;53.144;17.962;2023-02-04T13:56:19;4.93;;;1.38;;
76196;SDS011;64974;53.144;17.962;2023-02-04T13:58:44;7.22;;;2.50;;
76196;SDS011;64974;53.144;17.962;2023-02-04T14:01:10;4.60;;;2.37;;
76196;SDS011;64974;53.144;17.962;2023-02-04T14:03:36;4.38;;;1.88;;
76196;SDS011;64974;53.144;17.962;2023-02-04T14:06:01;4.28;;;2.75;;
76196;SDS011;64974;53.144;17.962;2023-02-04T14:08:27;4.95;;;2.08;;
76196;SDS011;64974;53.144;17.962;2023-02-04T14:10:52;2.13;;;1.43;;
76196;SDS011;64974;53.144;17.962;2023-02-04T14:13:17;7.88;;;3.17;;
76196;SDS011;64974;53.144;17.962;2023-02-04T14:15:43;7.60;;;2.80;;
76196;SDS011;64974;53.144;17.962;2023-02-04T14:18:08;11.67;;;3.67;;
76196;SDS011;64974;53.144;17.962;2023-02-04T14:20:34;6.85;;;3.17;;
76196;SDS011;64974;53.144;17.962;2023-02-04T14:23:00;18.45;;;5.75;;
76196;SDS011;64974;53.144;17.962;2023-02-04T14:25:26;9.77;;;3.80;;
76196;SDS011;64974;53.144;17.962;2023-02-04T14:27:51;9.50;;;2.75;;
76196;SDS011;64974;53.144;17.962;2023-02-04T14:30:26;10.10;;;3.33;;
76196;SDS011;64974;53.144;17.962;2023-02-04T14:32:52;4.75;;;1.80;;
76196;SDS011;64974;53.144;17.962;2023-02-04T14:35:18;6.65;;;2.38;;
76196;SDS011;64974;53.144;17.962;2023-02-04T14:37:44;3.72;;;1.83;;
76196;SDS011;64974;53.144;17.962;2023-02-04T14:40:10;5.60;;;2.20;;
76196;SDS011;64974;53.144;17.962;2023-02-04T14:42:36;5.53;;;2.35;;
76196;SDS011;64974;53.144;17.962;2023-02-04T14:45:03;1.75;;;1.00;;
76196;SDS011;64974;53.144;17.962;2023-02-04T14:50:01;1.90;;;1.30;;
76196;SDS011;64974;53.144;17.962;2023-02-04T14:52:26;2.35;;;1.17;;
76196;SDS011;64974;53.144;17.962;2023-02-04T14:54:52;5.78;;;1.65;;
76196;SDS011;64974;53.144;17.962;2023-02-04T14:57:17;3.97;;;1.58;;